Time;durP1;ratioP1;P1;durP2;ratioP2;P2;SDS_P1;SDS_P2;PMS_P1;PMS_P2;Temp;Humidity;BMP_temperature;BMP_pressure;BME280_temperature;BME280_humidity;BME280_pressure;Samples;Min_cycle;Max_cycle;Signal;HPM_P1;HPM_P2
2022/12/26 00:01:53;;;;;;;34.53;20.92;;;15.20;62.70;;;;;;4974445;28;20110;-82
2022/12/26 00:04:20;;;;;;;34.35;21.10;;;14.90;63.60;;;;;;4974374;28;20042;-83
2022/12/26 00:06:45;;;;;;;40.28;23.75;;;14.20;65.50;;;;;;4975037;28;20027;-82
2022/12/26 00:09:11;;;;;;;36.15;22.67;;;13.90;66.40;;;;;;4974353;28;20542;-81
2022/12/26 00:11:37;;;;;;;39.00;23.23;;;13.90;66.30;;;;;;4975254;28;20039;-82
2022/12/26 00:14:08;;;;;;;41.83;24.30;;;13.90;66.40;;;;;;4975337;28;20066;-86
2022/12/26 00:16:34;;;;;;;41.45;23.80;;;14.20;65.80;;;;;;4958056;28;20496;-82
2022/12/26 00:19:02;;;;;;;42.13;24.98;;;14.20;65.20;;;;;;4957732;28;20034;-84
2022/12/26 00:21:28;;;;;;;42.15;24.00;;;14.20;65.30;;;;;;4958026;28;20054;-83
2022/12/26 00:23:56;;;;;;;39.63;23.20;;;14.40;65.30;;;;;;4975070;28;20109;-83
2022/12/26 00:26:24;;;;;;;43.13;23.63;;;14.60;64.10;;;;;;4954227;29;20063;-84
2022/12/26 00:28:50;;;;;;;41.85;23.05;;;14.90;63.90;;;;;;4957086;28;20038;-84
2022/12/26 00:31:21;;;;;;;45.63;26.42;;;14.90;63.90;;;;;;4974651;28;20035;-84
2022/12/26 00:33:47;;;;;;;39.08;24.15;;;14.80;63.80;;;;;;4957694;28;20069;-83
2022/12/26 00:36:26;;;;;;;40.13;24.58;;;14.90;63.50;;;;;;4958126;28;20023;-83
2022/12/26 00:38:52;;;;;;;41.88;23.85;;;15.00;62.90;;;;;;4958087;28;20042;-82
2022/12/26 00:41:19;;;;;;;41.13;24.92;;;14.80;62.90;;;;;;4958496;28;20023;-79
2022/12/26 00:43:45;;;;;;;46.92;24.77;;;14.40;64.30;;;;;;4957878;28;20125;-80
2022/12/26 00:46:11;;;;;;;42.15;23.40;;;13.80;65.80;;;;;;4961538;28;20023;-83
2022/12/26 00:48:37;;;;;;;44.67;25.35;;;13.60;66.30;;;;;;4961199;28;20027;-83
2022/12/26 00:51:03;;;;;;;43.30;25.17;;;13.40;67.00;;;;;;4961367;28;20126;-81
2022/12/26 00:53:30;;;;;;;44.78;25.02;;;13.50;66.10;;;;;;4960655;28;20027;-81
2022/12/26 00:55:56;;;;;;;42.80;24.38;;;13.50;66.40;;;;;;4978373;28;20084;-82
2022/12/26 00:58:22;;;;;;;46.40;26.08;;;13.80;66.20;;;;;;4978422;28;20035;-81
2022/12/26 01:00:48;;;;;;;45.60;25.83;;;14.10;65.00;;;;;;4978246;28;20038;-80
2022/12/26 01:03:14;;;;;;;45.95;25.63;;;14.50;64.10;;;;;;4961089;28;20043;-82
2022/12/26 01:05:46;;;;;;;45.83;26.25;;;14.50;63.90;;;;;;4978637;28;20030;-82
2022/12/26 01:08:12;;;;;;;52.33;28.30;;;14.40;63.80;;;;;;4978888;28;20034;-83
2022/12/26 01:10:45;;;;;;;48.95;27.55;;;14.20;64.30;;;;;;4978376;28;20053;-85
2022/12/26 01:13:12;;;;;;;45.78;26.40;;;14.10;64.80;;;;;;4960962;28;20125;-85
2022/12/26 01:15:37;;;;;;;51.47;27.15;;;14.10;65.20;;;;;;4961249;28;20498;-83
2022/12/26 01:18:04;;;;;;;46.00;26.52;;;14.20;64.50;;;;;;4960846;28;20031;-86
2022/12/26 01:20:30;;;;;;;46.67;26.80;;;14.30;64.20;;;;;;4978219;28;20386;-87
2022/12/26 01:22:56;;;;;;;48.63;26.10;;;14.30;64.40;;;;;;4960395;28;20482;-82
2022/12/26 01:25:22;;;;;;;46.30;25.65;;;14.60;63.40;;;;;;4977727;28;20125;-82
2022/12/26 01:27:48;;;;;;;51.25;26.23;;;14.60;63.30;;;;;;4977715;28;20030;-82
2022/12/26 01:30:15;;;;;;;49.15;26.77;;;14.50;63.40;;;;;;4977877;28;20023;-81
2022/12/26 01:32:40;;;;;;;43.85;25.58;;;14.10;64.70;;;;;;4945972;28;20062;-81
2022/12/26 01:35:06;;;;;;;49.47;26.05;;;14.00;64.40;;;;;;4960637;28;20027;-82
2022/12/26 01:37:32;;;;;;;47.45;26.45;;;13.70;65.80;;;;;;4960664;28;20122;-81
2022/12/26 01:39:57;;;;;;;49.60;27.58;;;13.30;66.00;;;;;;4963565;28;20043;-83
2022/12/26 01:42:25;;;;;;;49.40;26.42;;;13.30;66.70;;;;;;4957262;29;20081;-82
2022/12/26 01:45:05;;;;;;;46.80;26.67;;;13.30;66.60;;;;;;4961377;28;20034;-83
2022/12/26 01:47:40;;;;;;;47.53;26.45;;;13.30;66.60;;;;;;4958998;29;20533;-86
2022/12/26 01:50:31;;;;;;;50.20;27.05;;;13.20;66.80;;;;;;4957850;28;20163;-90
2022/12/26 01:53:04;;;;;;;53.05;26.83;;;13.40;66.20;;;;;;4977236;28;20023;-82
2022/12/26 01:55:31;;;;;;;48.15;27.17;;;13.00;66.80;;;;;;4976946;28;20054;-84
2022/12/26 01:58:04;;;;;;;52.42;26.65;;;13.00;67.60;;;;;;4959959;28;20375;-82
2022/12/26 02:00:31;;;;;;;45.95;25.15;;;12.70;68.00;;;;;;4960350;28;20035;-93
2022/12/26 02:05:42;;;;;;;48.80;24.85;;;12.30;69.00;;;;;;4977750;28;20033;-82
2022/12/26 02:08:13;;;;;;;47.55;25.60;;;12.50;68.70;;;;;;4976547;28;20118;-85
2022/12/26 02:10:48;;;;;;;48.65;26.10;;;13.00;68.10;;;;;;4963088;28;20067;-82
2022/12/26 02:13:16;;;;;;;51.50;27.00;;;13.40;65.90;;;;;;4975917;28;20141;-82
2022/12/26 02:15:41;;;;;;;43.97;25.10;;;13.50;65.30;;;;;;4975960;28;20049;-83
2022/12/26 02:18:07;;;;;;;46.83;25.25;;;12.70;67.10;;;;;;4975739;28;20027;-83
2022/12/26 02:20:49;;;;;;;49.95;25.92;;;12.40;68.50;;;;;;4975633;28;20500;-81
2022/12/26 02:23:31;;;;;;;45.42;24.42;;;12.60;67.80;;;;;;4975740;28;20058;-82
2022/12/26 02:26:02;;;;;;;44.80;24.92;;;12.60;68.00;;;;;;4975924;28;20019;-81
2022/12/26 02:28:34;;;;;;;44.72;24.90;;;12.90;67.90;;;;;;4977325;28;20033;-83
2022/12/26 02:31:27;;;;;;;44.70;25.45;;;12.90;66.70;;;;;;4976220;28;20023;-81
2022/12/26 02:34:26;;;;;;;52.92;27.40;;;12.80;67.70;;;;;;4901669;29;20443;-83
2022/12/26 02:36:51;;;;;;;47.65;25.50;;;12.50;68.10;;;;;;4916819;29;20124;-82
2022/12/26 02:39:39;;;;;;;53.42;26.95;;;12.60;68.10;;;;;;4901129;29;20118;-93
2022/12/26 02:42:35;;;;;;;49.97;26.80;;;12.60;68.40;;;;;;4916178;29;20070;-88
2022/12/26 02:48:19;;;;;;;48.55;25.90;;;13.10;66.70;;;;;;4898338;29;20547;-85
2022/12/26 03:14:43;;;;;;;43.87;24.53;;;13.80;64.80;;;;;;4976402;28;20218;-82
2022/12/26 03:17:18;;;;;;;45.78;23.75;;;14.20;63.50;;;;;;4958658;28;20034;-83
2022/12/26 03:20:09;;;;;;;50.78;25.58;;;14.00;63.60;;;;;;4968289;28;20019;-85
2022/12/26 03:22:42;;;;;;;51.70;25.35;;;14.00;63.80;;;;;;4973144;28;20070;-82
2022/12/26 03:27:56;;;;;;;48.00;24.20;;;14.20;63.20;;;;;;4975972;28;20038;-82
2022/12/26 03:34:15;;;;;;;49.70;24.90;;;14.40;62.50;;;;;;4966569;28;20065;-83
2022/12/26 03:35:52;;;;;;;43.45;24.20;;;14.30;62.80;;;;;;4973287;28;20398;-82
2022/12/26 03:38:21;;;;;;;50.15;25.02;;;14.20;63.10;;;;;;4955726;29;20027;-82
2022/12/26 04:19:26;;;;;;;47.85;25.10;;;12.80;67.00;;;;;;4977087;28;20469;-86
2022/12/26 04:45:15;;;;;;;55.30;26.80;;;12.80;66.40;;;;;;4978682;28;20049;-86
2022/12/26 04:50:10;;;;;;;57.20;27.98;;;12.70;67.10;;;;;;4961535;28;20131;-82
2022/12/26 04:50:27;;;;;;;51.15;26.20;;;12.80;67.10;;;;;;4979038;28;20037;-84
2022/12/26 04:52:58;;;;;;;60.65;28.35;;;13.20;66.10;;;;;;4961213;28;20027;-83
2022/12/26 04:55:34;;;;;;;58.65;28.55;;;13.50;65.60;;;;;;4978954;28;20398;-83
2022/12/26 04:58:00;;;;;;;56.90;27.63;;;13.60;65.40;;;;;;4961071;28;20498;-86
2022/12/26 05:00:27;;;;;;;62.58;30.73;;;13.60;64.80;;;;;;4978697;28;20061;-90
2022/12/26 05:11:23;;;;;;;59.13;26.42;;;13.40;64.80;;;;;;4899810;29;20089;-82
2022/12/26 05:13:54;;;;;;;59.38;26.83;;;13.30;66.20;;;;;;4900036;29;20033;-87
2022/12/26 05:30:10;;;;;;;63.15;28.08;;;13.80;64.70;;;;;;4900397;29;20069;-87
2022/12/26 05:35:20;;;;;;;67.78;29.80;;;14.30;63.20;;;;;;4899741;29;20396;-84
2022/12/26 05:37:45;;;;;;;65.13;29.65;;;14.40;63.00;;;;;;4899721;29;20461;-82
2022/12/26 05:40:11;;;;;;;85.88;33.63;;;14.50;63.10;;;;;;4899348;29;20048;-89
2022/12/26 05:42:37;;;;;;;73.32;31.90;;;14.60;62.60;;;;;;4890699;29;20029;-91
2022/12/26 05:45:04;;;;;;;75.85;32.60;;;14.50;63.40;;;;;;4920315;28;20047;-83
2022/12/26 05:47:29;;;;;;;91.43;37.10;;;14.20;63.30;;;;;;4961080;28;20470;-84
2022/12/26 05:49:55;;;;;;;75.28;32.13;;;14.30;63.00;;;;;;4960707;28;20030;-90
2022/12/26 05:52:21;;;;;;;76.95;31.35;;;14.30;63.30;;;;;;4977454;28;20094;-83
2022/12/26 05:54:46;;;;;;;74.85;31.85;;;14.40;62.50;;;;;;4977573;28;20022;-82
2022/12/26 05:57:12;;;;;;;75.75;32.33;;;14.30;63.00;;;;;;4977417;28;20031;-83
2022/12/26 05:59:38;;;;;;;74.80;32.08;;;14.30;63.30;;;;;;4960069;28;20023;-89
2022/12/26 06:02:03;;;;;;;70.95;32.17;;;14.50;62.60;;;;;;4956463;29;20030;-85
2022/12/26 06:04:29;;;;;;;94.50;34.28;;;14.60;63.00;;;;;;4957514;29;20039;-82
2022/12/26 06:06:55;;;;;;;71.45;30.70;;;14.60;62.20;;;;;;4957534;29;20110;-85
2022/12/26 06:09:25;;;;;;;96.53;37.15;;;14.10;63.70;;;;;;4956401;29;20023;-84
2022/12/26 06:11:50;;;;;;;86.70;36.88;;;13.70;64.20;;;;;;4957486;28;20553;-82
2022/12/26 06:14:16;;;;;;;81.13;35.97;;;13.60;65.00;;;;;;4971782;28;20119;-85
2022/12/26 06:16:41;;;;;;;81.78;38.05;;;13.60;65.10;;;;;;4958461;29;20081;-83
2022/12/26 06:19:07;;;;;;;83.28;38.28;;;13.80;64.60;;;;;;4989769;28;20023;-83
2022/12/26 06:21:33;;;;;;;68.55;32.30;;;13.80;64.90;;;;;;4976753;28;20056;-83
2022/12/26 06:23:58;;;;;;;80.80;35.53;;;13.80;63.90;;;;;;4975873;28;20042;-83
2022/12/26 06:26:24;;;;;;;85.03;34.92;;;13.70;64.90;;;;;;4975865;28;20553;-82
2022/12/26 06:28:50;;;;;;;82.05;33.45;;;13.50;65.10;;;;;;4976902;28;20061;-85
2022/12/26 06:31:19;;;;;;;78.53;33.38;;;13.80;64.90;;;;;;4976854;28;20046;-84
2022/12/26 06:33:46;;;;;;;70.60;33.40;;;13.90;64.40;;;;;;4976672;28;20029;-83
2022/12/26 06:36:20;;;;;;;68.47;30.17;;;14.00;64.20;;;;;;4972280;28;20066;-84
2022/12/26 06:38:45;;;;;;;67.38;31.05;;;14.10;63.70;;;;;;4956219;29;20023;-82
2022/12/26 06:41:14;;;;;;;63.88;29.83;;;14.30;63.40;;;;;;4957212;29;20027;-85
2022/12/26 06:43:40;;;;;;;84.40;30.65;;;14.40;63.20;;;;;;4956005;28;20134;-82
2022/12/26 06:46:08;;;;;;;74.63;31.42;;;14.50;62.70;;;;;;4957681;29;20069;-85
2022/12/26 06:48:38;;;;;;;73.72;31.42;;;14.60;62.80;;;;;;4956142;29;20054;-83
2022/12/26 06:51:13;;;;;;;82.53;33.13;;;14.80;62.60;;;;;;4958870;28;20019;-89
2022/12/26 06:53:42;;;;;;;68.18;30.77;;;14.80;62.40;;;;;;4978555;28;20035;-85
2022/12/26 06:56:17;;;;;;;71.45;30.17;;;14.90;62.00;;;;;;4971108;28;20026;-82
2022/12/26 06:58:43;;;;;;;79.82;31.30;;;15.10;62.10;;;;;;4963667;28;20031;-82
2022/12/26 07:01:15;;;;;;;84.90;32.45;;;15.20;61.80;;;;;;4955831;29;20442;-90
2022/12/26 07:03:41;;;;;;;87.25;35.83;;;15.20;61.10;;;;;;4974795;28;20134;-86
2022/12/26 07:06:20;;;;;;;235.40;93.07;;;15.20;61.10;;;;;;4971221;28;20034;-83
2022/12/26 07:08:46;;;;;;;126.18;48.72;;;15.00;61.80;;;;;;4976177;28;20395;-83
2022/12/26 07:11:16;;;;;;;93.10;35.55;;;15.00;61.70;;;;;;4975153;28;20055;-86
2022/12/26 07:13:42;;;;;;;125.68;62.92;;;15.00;61.80;;;;;;4976183;28;20033;-86
2022/12/26 07:16:09;;;;;;;155.52;71.60;;;15.10;61.50;;;;;;4975271;28;20026;-83
2022/12/26 07:18:34;;;;;;;135.25;53.97;;;15.20;61.50;;;;;;4969076;28;20114;-82
2022/12/26 07:21:08;;;;;;;85.22;34.53;;;15.40;61.00;;;;;;4955627;29;20110;-82
2022/12/26 07:23:34;;;;;;;77.22;33.97;;;15.60;60.70;;;;;;4955553;29;20090;-87
2022/12/26 07:26:00;;;;;;;87.10;36.20;;;15.50;60.60;;;;;;4955708;29;20027;-85
2022/12/26 07:28:26;;;;;;;121.78;53.53;;;15.40;61.10;;;;;;4955795;29;20055;-83
2022/12/26 07:30:52;;;;;;;94.50;37.05;;;15.30;61.70;;;;;;4954991;29;20023;-86
2022/12/26 07:33:18;;;;;;;101.60;41.10;;;15.40;61.40;;;;;;4956652;28;20356;-87
2022/12/26 07:35:44;;;;;;;78.90;34.33;;;15.50;60.90;;;;;;4955752;29;20023;-86
2022/12/26 07:38:10;;;;;;;83.88;31.80;;;15.60;60.60;;;;;;4957404;28;20039;-83
2022/12/26 07:40:36;;;;;;;85.47;34.30;;;15.60;60.80;;;;;;4975222;28;20022;-87
2022/12/26 07:43:02;;;;;;;101.18;37.15;;;15.60;61.10;;;;;;4974409;28;20045;-84
2022/12/26 07:45:28;;;;;;;93.45;37.40;;;15.50;61.20;;;;;;4974169;28;20042;-82
2022/12/26 07:47:54;;;;;;;88.53;35.85;;;15.50;61.10;;;;;;4975928;28;20026;-87
2022/12/26 07:50:21;;;;;;;82.18;34.00;;;15.70;60.80;;;;;;4974871;28;20458;-82
2022/12/26 07:52:47;;;;;;;85.63;33.53;;;15.70;60.90;;;;;;4969327;28;20054;-87
2022/12/26 07:55:13;;;;;;;71.70;30.58;;;15.40;61.70;;;;;;4977981;28;20069;-86
2022/12/26 07:57:39;;;;;;;69.55;30.00;;;15.40;61.60;;;;;;4978569;28;20030;-84
2022/12/26 08:00:05;;;;;;;66.90;30.50;;;15.50;61.40;;;;;;4979538;28;20031;-83
2022/12/26 08:02:31;;;;;;;88.75;35.75;;;15.20;61.60;;;;;;4977388;28;20073;-86
2022/12/26 08:04:57;;;;;;;79.35;35.22;;;15.20;62.40;;;;;;4977871;28;20089;-82
2022/12/26 08:07:22;;;;;;;95.85;42.00;;;15.40;61.70;;;;;;4977344;28;20027;-82
2022/12/26 08:09:48;;;;;;;72.97;34.72;;;15.60;61.00;;;;;;4977688;28;20126;-87
2022/12/26 08:12:14;;;;;;;86.10;36.05;;;15.60;60.80;;;;;;4977685;28;20050;-81
2022/12/26 08:14:40;;;;;;;83.10;36.58;;;15.20;62.10;;;;;;4975483;28;20099;-83
2022/12/26 08:17:06;;;;;;;87.38;38.25;;;15.20;62.10;;;;;;4977604;28;20035;-82
2022/12/26 08:19:35;;;;;;;82.97;39.40;;;15.30;62.30;;;;;;4974131;28;20038;-82
2022/12/26 08:22:00;;;;;;;101.70;45.28;;;15.50;62.20;;;;;;4969810;28;20399;-83
2022/12/26 08:24:26;;;;;;;81.60;41.33;;;15.60;61.90;;;;;;4966324;28;20470;-81
2022/12/26 08:26:52;;;;;;;74.80;30.70;;;15.80;60.80;;;;;;4975787;28;20027;-82
2022/12/26 08:29:17;;;;;;;78.00;33.60;;;15.50;61.30;;;;;;4968709;28;20035;-89
2022/12/26 08:31:43;;;;;;;87.60;34.30;;;15.50;62.20;;;;;;4970847;28;20037;-82
2022/12/26 08:34:09;;;;;;;87.85;33.92;;;15.70;61.30;;;;;;4976688;28;20113;-84
2022/12/26 08:36:35;;;;;;;77.18;31.13;;;15.90;61.40;;;;;;4977529;28;20026;-83
2022/12/26 08:39:01;;;;;;;80.82;32.63;;;16.00;60.80;;;;;;4976791;28;20051;-84
2022/12/26 08:41:29;;;;;;;75.05;30.58;;;15.80;61.60;;;;;;4977401;28;20031;-85
2022/12/26 08:43:55;;;;;;;68.35;29.48;;;15.90;60.90;;;;;;4977877;28;20030;-82
2022/12/26 08:46:21;;;;;;;74.03;32.13;;;15.30;61.80;;;;;;4976551;28;20042;-83
2022/12/26 08:48:48;;;;;;;73.38;30.42;;;14.60;63.10;;;;;;4974687;28;20031;-85
2022/12/26 08:51:17;;;;;;;70.65;30.25;;;13.90;64.70;;;;;;4969773;28;20058;-90
2022/12/26 08:53:44;;;;;;;72.18;29.70;;;13.80;66.40;;;;;;4973781;28;20033;-83
2022/12/26 08:56:13;;;;;;;75.47;33.28;;;13.90;66.50;;;;;;4976225;28;20034;-82
2022/12/26 08:58:40;;;;;;;70.63;29.50;;;14.20;65.20;;;;;;4975644;28;20031;-81
2022/12/26 09:01:14;;;;;;;85.20;33.65;;;13.50;66.60;;;;;;4976062;28;20406;-91
2022/12/26 09:03:41;;;;;;;85.72;34.83;;;13.30;67.90;;;;;;4976368;28;20043;-84
2022/12/26 09:06:07;;;;;;;88.45;34.38;;;13.00;68.20;;;;;;4976135;28;20026;-86
2022/12/26 09:08:34;;;;;;;74.93;32.15;;;13.00;69.40;;;;;;4987184;28;20530;-89
2022/12/26 09:11:13;;;;;;;80.00;33.08;;;12.90;69.40;;;;;;4975766;28;21265;-83
2022/12/26 09:13:39;;;;;;;87.60;33.10;;;13.30;69.20;;;;;;4976421;28;20030;-82
2022/12/26 09:16:08;;;;;;;69.22;30.88;;;14.10;67.10;;;;;;4975988;28;20515;-85
2022/12/26 09:18:34;;;;;;;72.68;30.27;;;14.60;64.70;;;;;;4975910;28;20375;-88
2022/12/26 09:21:04;;;;;;;69.32;31.23;;;14.00;66.10;;;;;;4976385;28;20030;-90
2022/12/26 09:23:30;;;;;;;;;;;13.80;66.70;;;;;;4976819;28;20150;-83
2022/12/26 09:26:14;;;;;;;77.35;31.70;;;13.50;67.20;;;;;;4975907;28;20115;-82
2022/12/26 09:28:39;;;;;;;92.28;36.47;;;13.40;68.60;;;;;;4971876;28;20031;-90
2022/12/26 09:31:18;;;;;;;74.70;31.85;;;14.00;67.80;;;;;;4972602;28;20035;-87
2022/12/26 09:33:45;;;;;;;77.03;32.25;;;14.30;65.80;;;;;;4972728;28;20039;-86
2022/12/26 09:36:14;;;;;;;71.75;30.05;;;14.70;65.60;;;;;;4972370;28;20031;-90
2022/12/26 09:38:40;;;;;;;67.60;28.60;;;15.00;64.10;;;;;;4971738;28;20023;-81
2022/12/26 09:41:44;;;;;;;74.38;29.63;;;15.00;64.20;;;;;;4972241;28;20043;-81
2022/12/26 09:44:10;;;;;;;64.03;28.55;;;15.30;64.20;;;;;;4919897;29;20043;-83
2022/12/26 09:46:54;;;;;;;67.45;27.30;;;15.80;62.60;;;;;;4919854;29;20024;-86
2022/12/26 09:49:25;;;;;;;60.42;28.45;;;15.80;62.10;;;;;;4920458;29;20438;-85
2022/12/26 09:51:55;;;;;;;;;;;15.90;62.20;;;;;;4936629;29;20035;-81
2022/12/26 09:54:26;;;;;;;;;;;15.90;62.50;;;;;;4921634;29;19941;-90
2022/12/26 09:56:53;;;;;;;64.95;28.30;;;15.90;62.20;;;;;;4929653;29;19934;-82
2022/12/26 09:59:23;;;;;;;74.47;34.45;;;15.30;62.50;;;;;;4939902;29;20032;-85
2022/12/26 10:01:49;;;;;;;68.75;35.08;;;14.30;65.90;;;;;;4935983;29;20482;-83
2022/12/26 10:04:26;;;;;;;57.67;28.52;;;14.50;65.80;;;;;;4939216;29;20490;-82
2022/12/26 10:06:59;;;;;;;50.97;24.33;;;14.70;65.10;;;;;;4949447;29;20079;-83
2022/12/26 10:09:33;;;;;;;52.58;25.33;;;15.20;64.10;;;;;;4933557;29;20047;-81
2022/12/26 10:12:04;;;;;;;55.25;25.77;;;15.80;62.70;;;;;;4939831;29;20086;-86
2022/12/26 10:14:42;;;;;;;65.75;27.52;;;15.80;62.20;;;;;;4949831;28;20037;-81
2022/12/26 10:17:20;;;;;;;65.05;28.58;;;15.30;64.10;;;;;;4975826;28;20026;-84
2022/12/26 10:20:04;;;;;;;55.95;27.98;;;15.60;63.70;;;;;;4962464;28;21921;-86
2022/12/26 10:22:57;;;;;;;54.63;25.42;;;15.70;63.30;;;;;;4957953;28;20026;-81
2022/12/26 10:26:06;;;;;;;40.80;20.52;;;15.60;63.40;;;;;;4972783;28;20028;-87
2022/12/26 10:28:46;;;;;;;60.65;26.83;;;15.70;63.20;;;;;;4939316;29;20032;-83
2022/12/26 10:31:23;;;;;;;56.03;26.60;;;15.70;62.50;;;;;;4954082;29;20035;-83
2022/12/26 10:34:11;;;;;;;62.42;29.42;;;14.60;65.40;;;;;;4955119;28;20027;-81
2022/12/26 10:36:43;;;;;;;63.28;28.73;;;13.80;68.10;;;;;;4939693;29;20035;-85
2022/12/26 10:39:38;;;;;;;62.67;28.77;;;13.70;69.00;;;;;;4939426;29;20035;-80
2022/12/26 10:42:20;;;;;;;59.75;28.02;;;13.80;69.10;;;;;;4593465;28;9999753;-86
2022/12/26 10:44:46;;;;;;;62.47;26.55;;;14.20;67.90;;;;;;4933523;29;20042;-80
2022/12/26 10:47:24;;;;;;;55.65;26.25;;;14.40;66.70;;;;;;4936961;29;20039;-80
2022/12/26 10:49:51;;;;;;;58.58;29.02;;;14.20;68.00;;;;;;4938263;29;20059;-78
2022/12/26 10:52:19;;;;;;;52.95;25.95;;;14.10;68.00;;;;;;4954341;29;20039;-82
2022/12/26 10:54:50;;;;;;;59.25;28.75;;;14.30;67.20;;;;;;4937413;29;20035;-81
2022/12/26 10:57:16;;;;;;;48.40;24.35;;;14.60;67.60;;;;;;4937675;29;20091;-80
2022/12/26 10:59:48;;;;;;;55.17;25.30;;;15.10;65.60;;;;;;4957700;28;20050;-87
2022/12/26 11:02:20;;;;;;;51.42;26.60;;;15.00;64.80;;;;;;4973665;28;20126;-88
2022/12/26 11:05:00;;;;;;;45.50;22.92;;;14.80;65.80;;;;;;4973355;28;20043;-82
2022/12/26 11:07:30;;;;;;;44.53;22.17;;;14.80;66.10;;;;;;4974805;28;20063;-88
2022/12/26 11:09:59;;;;;;;56.22;24.60;;;15.30;65.60;;;;;;4974081;28;20027;-84
2022/12/26 11:12:49;;;;;;;44.33;22.60;;;16.10;63.80;;;;;;4975205;28;20425;-84
2022/12/26 11:15:38;;;;;;;45.03;21.80;;;16.30;62.70;;;;;;4954255;29;20553;-91
2022/12/26 11:18:21;;;;;;;49.60;22.48;;;15.90;62.70;;;;;;4973818;28;20038;-80
2022/12/26 11:20:48;;;;;;;50.28;22.85;;;15.60;64.40;;;;;;4955264;28;20422;-82
2022/12/26 11:23:31;;;;;;;47.63;21.30;;;16.10;63.40;;;;;;4974070;28;20050;-82
2022/12/26 11:26:00;;;;;;;45.30;20.27;;;16.30;62.90;;;;;;4958299;28;20423;-80
2022/12/26 11:28:35;;;;;;;49.22;21.55;;;16.60;62.00;;;;;;4975681;28;20536;-83
2022/12/26 11:31:05;;;;;;;44.58;21.52;;;16.90;61.30;;;;;;4973888;28;20035;-84
2022/12/26 11:33:40;;;;;;;49.73;22.47;;;17.10;60.40;;;;;;4972311;28;20086;-80
2022/12/26 11:36:27;;;;;;;47.47;21.85;;;17.40;60.00;;;;;;4974816;28;20038;-80
2022/12/26 11:39:06;;;;;;;46.97;22.23;;;17.10;60.10;;;;;;4938950;29;20031;-83
2022/12/26 11:41:41;;;;;;;48.13;23.88;;;16.40;61.90;;;;;;4949412;28;20030;-85
2022/12/26 11:44:10;;;;;;;53.85;26.55;;;15.70;63.70;;;;;;4954568;29;20031;-83
2022/12/26 11:47:14;;;;;;;50.70;24.05;;;15.20;64.30;;;;;;4957526;28;20022;-80
2022/12/26 11:49:59;;;;;;;55.58;25.95;;;14.80;65.80;;;;;;4952826;28;20042;-81
2022/12/26 11:52:42;;;;;;;45.22;21.77;;;14.50;66.60;;;;;;4970520;28;20126;-79
2022/12/26 11:55:23;;;;;;;55.17;25.63;;;14.30;67.50;;;;;;4973101;28;20055;-79
2022/12/26 11:58:16;;;;;;;60.85;26.38;;;14.60;67.00;;;;;;4945451;29;20033;-92
2022/12/26 12:01:04;;;;;;;46.95;22.70;;;14.90;65.60;;;;;;4943192;28;20031;-90
2022/12/26 12:03:40;;;;;;;47.00;21.70;;;15.00;65.70;;;;;;4954303;29;20039;-83
2022/12/26 12:06:12;;;;;;;44.25;21.48;;;15.30;65.00;;;;;;4963276;28;20430;-81
2022/12/26 12:08:56;;;;;;;44.90;21.88;;;15.80;64.20;;;;;;4958279;28;20078;-87
2022/12/26 12:11:49;;;;;;;51.17;22.83;;;16.20;63.20;;;;;;4971156;28;20046;-83
2022/12/26 12:14:14;;;;;;;47.97;23.13;;;16.60;62.10;;;;;;4972083;28;20038;-82
2022/12/26 12:16:55;;;;;;;50.13;22.48;;;16.90;61.60;;;;;;4973735;28;20035;-83
2022/12/26 12:19:38;;;;;;;44.47;22.25;;;17.00;61.20;;;;;;4974488;28;20030;-81
2022/12/26 12:22:43;;;;;;;43.45;23.17;;;17.20;60.60;;;;;;4974116;28;20089;-82
2022/12/26 12:25:29;;;;;;;56.08;23.75;;;16.60;61.40;;;;;;4973728;28;20034;-81
2022/12/26 12:28:18;;;;;;;41.38;20.90;;;16.20;62.00;;;;;;4990521;28;20023;-81
2022/12/26 12:31:12;;;;;;;45.88;22.65;;;16.30;62.20;;;;;;4971975;28;20371;-87
2022/12/26 12:34:01;;;;;;;42.10;22.52;;;16.60;61.50;;;;;;4969013;28;20070;-87
2022/12/26 12:36:30;;;;;;;40.53;22.05;;;16.80;61.00;;;;;;4975026;28;20030;-90
2022/12/26 12:39:19;;;;;;;46.20;22.63;;;16.20;62.20;;;;;;4974301;28;20105;-85
2022/12/26 12:42:15;;;;;;;45.15;21.42;;;16.00;63.20;;;;;;4977444;28;20121;-82
2022/12/26 12:45:05;;;;;;;46.03;23.30;;;16.20;62.20;;;;;;4977842;28;20042;-88
2022/12/26 12:47:58;;;;;;;55.03;29.27;;;15.90;63.00;;;;;;4978903;28;20082;-90
2022/12/26 12:50:30;;;;;;;58.03;29.25;;;15.50;63.50;;;;;;4959735;28;20023;-90
2022/12/26 12:52:58;;;;;;;54.92;27.38;;;15.20;64.80;;;;;;4977976;28;20042;-82
2022/12/26 12:56:14;;;;;;;50.83;25.60;;;15.50;63.90;;;;;;4976903;28;20022;-82
2022/12/26 12:58:59;;;;;;;45.90;23.58;;;15.80;63.50;;;;;;4644343;28;9999706;-84
2022/12/26 13:01:45;;;;;;;58.22;25.70;;;15.50;64.10;;;;;;4977145;28;20426;-83
2022/12/26 13:04:28;;;;;;;60.70;29.13;;;14.80;65.50;;;;;;4975784;28;20038;-89
2022/12/26 13:07:18;;;;;;;56.80;26.45;;;14.90;65.20;;;;;;4975266;28;20019;-81
2022/12/26 13:09:55;;;;;;;60.65;27.92;;;14.70;65.60;;;;;;4975258;28;20034;-87
2022/12/26 13:12:26;;;;;;;55.92;28.63;;;14.60;66.30;;;;;;4961287;28;20387;-82
2022/12/26 13:14:58;;;;;;;58.63;26.52;;;14.60;66.00;;;;;;4957116;28;20185;-81
2022/12/26 13:17:50;;;;;;;55.75;26.08;;;14.60;66.50;;;;;;4959607;28;20035;-83
2022/12/26 13:20:25;;;;;;;51.10;24.65;;;14.30;66.80;;;;;;4973435;28;20038;-88
2022/12/26 13:26:04;;;;;;;64.72;31.40;;;14.20;67.90;;;;;;4969620;28;20038;-84
2022/12/26 13:28:35;;;;;;;59.28;28.50;;;14.00;69.10;;;;;;4959639;28;20050;-91
2022/12/26 13:31:01;;;;;;;61.30;28.80;;;14.60;67.20;;;;;;4957987;28;20181;-90
2022/12/26 13:33:27;;;;;;;61.25;28.83;;;15.00;66.10;;;;;;4963713;28;20537;-84
2022/12/26 13:35:58;;;;;;;55.97;27.83;;;15.50;65.50;;;;;;4957368;28;20543;-84
2022/12/26 13:38:44;;;;;;;54.03;28.25;;;15.80;64.10;;;;;;4958755;28;20027;-81
2022/12/26 13:44:00;;;;;;;56.95;27.95;;;16.00;63.70;;;;;;4977060;28;20085;-90
2022/12/26 13:46:43;;;;;;;80.15;37.10;;;16.30;62.80;;;;;;4959916;28;20027;-91
2022/12/26 13:49:37;;;;;;;65.43;30.25;;;16.20;62.30;;;;;;4949206;28;20138;-79
2022/12/26 13:52:09;;;;;;;62.33;27.75;;;16.00;63.40;;;;;;4958846;28;20027;-82
2022/12/26 13:54:51;;;;;;;58.95;28.10;;;16.10;62.80;;;;;;4976879;28;20023;-86
2022/12/26 13:57:38;;;;;;;71.15;29.38;;;16.20;62.90;;;;;;4951043;29;20075;-82
2022/12/26 14:00:24;;;;;;;65.47;27.85;;;16.20;62.50;;;;;;4944969;28;20073;-82
2022/12/26 14:03:11;;;;;;;67.50;30.55;;;16.40;62.60;;;;;;4956809;28;20378;-83
2022/12/26 14:06:06;;;;;;;75.95;33.92;;;16.60;61.90;;;;;;4959641;28;20035;-85
2022/12/26 14:09:15;;;;;;;60.78;30.20;;;16.60;62.20;;;;;;4954713;28;20054;-85
2022/12/26 14:12:07;;;;;;;63.58;30.70;;;16.60;62.00;;;;;;4914699;29;20100;-83
2022/12/26 14:14:54;;;;;;;68.25;32.88;;;16.50;61.80;;;;;;4916761;28;20036;-82
2022/12/26 14:17:48;;;;;;;62.40;30.30;;;16.70;61.90;;;;;;4916822;29;20437;-87
2022/12/26 14:20:35;;;;;;;67.60;32.45;;;16.90;61.20;;;;;;4900391;29;20042;-81
2022/12/26 14:23:13;;;;;;;70.82;30.92;;;16.90;60.80;;;;;;4900841;29;20088;-82
2022/12/26 14:26:03;;;;;;;78.50;35.05;;;16.60;61.60;;;;;;4898649;29;20029;-88
2022/12/26 14:28:52;;;;;;;81.65;37.67;;;16.70;61.40;;;;;;4900863;29;20465;-82
2022/12/26 14:31:33;;;;;;;169.52;79.40;;;17.00;60.90;;;;;;4910676;29;20480;-86
2022/12/26 14:34:14;;;;;;;72.78;34.60;;;17.00;60.50;;;;;;4574632;29;10000170;-87
2022/12/26 14:37:18;;;;;;;80.60;39.80;;;17.00;60.80;;;;;;4904911;29;20039;-82
2022/12/26 14:40:21;;;;;;;83.10;39.95;;;16.80;61.20;;;;;;4913635;29;20119;-85
2022/12/26 14:43:11;;;;;;;70.15;34.30;;;16.80;61.10;;;;;;4911873;29;20178;-89
2022/12/26 14:45:40;;;;;;;110.28;47.42;;;16.80;60.60;;;;;;4899435;29;20036;-81
2022/12/26 14:48:15;;;;;;;73.57;33.15;;;16.00;63.00;;;;;;4947079;29;20036;-89
2022/12/26 14:50:56;;;;;;;105.68;51.75;;;15.70;63.80;;;;;;4952764;28;20153;-86
2022/12/26 14:53:27;;;;;;;88.80;40.75;;;15.70;64.00;;;;;;4958720;28;20120;-82
2022/12/26 14:56:06;;;;;;;79.53;37.85;;;15.50;64.40;;;;;;4954384;29;20023;-83
2022/12/26 14:58:39;;;;;;;76.68;33.78;;;15.30;64.60;;;;;;4957109;28;20027;-87
2022/12/26 15:01:08;;;;;;;69.47;34.50;;;15.30;65.00;;;;;;4958129;28;20032;-82
2022/12/26 15:03:55;;;;;;;70.65;33.08;;;15.70;63.90;;;;;;4953293;28;20133;-85
2022/12/26 15:06:21;;;;;;;65.88;31.27;;;15.70;63.90;;;;;;4944436;28;20394;-82
2022/12/26 15:08:52;;;;;;;68.50;33.08;;;15.60;63.80;;;;;;4958387;28;20027;-85